| time (UTC) | temp F | wind direction | speed knots | gust knots | rain 1hr in | rain 24hr in | rain mn in | humidity % | barometer mb |
| 20260504050548 | 36 | 303 | 0.9 | 0.9 | 0.00 | 0.00 | 0.00 | 67 | 1018.9 |
| 20260504045541 | 35 | 294 | 0.0 | 0.0 | 0.00 | 0.00 | 0.00 | 69 | 1018.9 |
| 20260504045037 | 36 | 294 | 0.0 | 0.0 | 0.00 | 0.00 | 0.00 | 68 | 1018.6 |
| 20260504044534 | 37 | 294 | 0.0 | 0.0 | 0.00 | 0.00 | 0.00 | 68 | 1018.8 |
| 20260504044031 | 37 | 294 | 0.0 | 0.0 | 0.00 | 0.00 | 0.00 | 66 | 1018.8 |
| 20260504043528 | 38 | 294 | 0.0 | 0.0 | 0.00 | 0.00 | 0.00 | 66 | 1018.7 |
| 20260504043026 | 38 | 294 | 0.0 | 0.0 | 0.00 | 0.00 | 0.00 | 63 | 1018.6 |
| 20260504042523 | 39 | 294 | 0.0 | 0.0 | 0.00 | 0.00 | 0.00 | 61 | 1018.6 |
| 20260504042020 | 40 | 294 | 0.0 | 0.0 | 0.00 | 0.00 | 0.00 | 59 | 1018.6 |
| 20260504041515 | 40 | 294 | 0.0 | 0.0 | 0.00 | 0.00 | 0.00 | 59 | 1018.9 |
| 20260504041011 | 41 | 294 | 0.0 | 0.0 | 0.00 | 0.00 | 0.00 | 58 | 1018.5 |
| 20260504040509 | 41 | 294 | 0.0 | 0.0 | 0.00 | 0.00 | 0.00 | 57 | 1018.6 |
| 20260504040005 | 42 | 294 | 0.0 | 0.0 | 0.00 | 0.00 | 0.00 | 56 | 1018.6 |
| 20260504035503 | 42 | 293 | 0.0 | 0.0 | 0.00 | 0.00 | 0.00 | 56 | 1018.6 |
| 20260504034959 | 44 | 292 | 0.0 | 0.0 | 0.00 | 0.00 | 0.00 | 53 | 1018.7 |
| 20260504034457 | 45 | 299 | 0.9 | 0.9 | 0.00 | 0.00 | 0.00 | 51 | 1018.6 |
| 20260504033954 | 46 | 284 | 0.0 | 0.0 | 0.00 | 0.00 | 0.00 | 49 | 1018.7 |
| 20260504033451 | 47 | 289 | 0.0 | 0.9 | 0.00 | 0.00 | 0.00 | 47 | 1018.6 |
| 20260504032948 | 48 | 322 | 0.9 | 0.9 | 0.00 | 0.00 | 0.00 | 46 | 1018.6 |
| 20260504032445 | 48 | 40 | 1.7 | 1.7 | 0.00 | 0.00 | 0.00 | 45 | 1018.6 |
| 20260504031942 | 49 | 276 | 0.0 | 0.0 | 0.00 | 0.00 | 0.00 | 45 | 1018.6 |
| 20260504031439 | 50 | 288 | 0.0 | 0.0 | 0.00 | 0.00 | 0.00 | 44 | 1018.5 |
| 20260504030936 | 50 | 301 | 0.9 | 0.9 | 0.00 | 0.00 | 0.00 | 43 | 1018.7 |
| 20260504030433 | 51 | 295 | 0.9 | 0.9 | 0.00 | 0.00 | 0.00 | 42 | 1018.5 |
| 20260504025928 | 51 | 355 | 1.7 | 1.7 | 0.00 | 0.00 | 0.00 | 42 | 1018.5 |
| 20260504025425 | 51 | 285 | 0.0 | 0.0 | 0.00 | 0.00 | 0.00 | 42 | 1018.4 |
| 20260504024922 | 51 | 84 | 1.7 | 2.6 | 0.00 | 0.00 | 0.00 | 41 | 1018.2 |
| 20260504024420 | 52 | 298 | 0.9 | 1.7 | 0.00 | 0.00 | 0.00 | 41 | 1018.3 |
| 20260504023916 | 52 | 56 | 1.7 | 2.6 | 0.00 | 0.00 | 0.00 | 41 | 1018.3 |
| 20260504023413 | 52 | 54 | 0.9 | 1.7 | 0.00 | 0.00 | 0.00 | 40 | 1018.3 |
| 20260504022908 | 52 | 317 | 0.9 | 0.9 | 0.00 | 0.00 | 0.00 | 40 | 1018.3 |
| 20260504022405 | 53 | 295 | 1.7 | 2.6 | 0.00 | 0.00 | 0.00 | 40 | 1018.3 |
| 20260504021902 | 53 | 133 | 1.7 | 1.7 | 0.00 | 0.00 | 0.00 | 39 | 1018.3 |
| 20260504021359 | 54 | 96 | 2.6 | 2.6 | 0.00 | 0.00 | 0.00 | 37 | 1018.1 |
| 20260504020856 | 54 | 270 | 0.9 | 0.9 | 0.00 | 0.00 | 0.00 | 37 | 1018.3 |
| 20260504020353 | 54 | 345 | 2.6 | 3.5 | 0.00 | 0.00 | 0.00 | 37 | 1018.5 |
| 20260504015849 | 54 | 276 | 0.0 | 0.0 | 0.00 | 0.00 | 0.00 | 37 | 1018.3 |
| 20260504015345 | 54 | 314 | 0.9 | 1.7 | 0.00 | 0.00 | 0.00 | 37 | 1018.4 |
| 20260504014841 | 55 | 312 | 2.6 | 2.6 | 0.00 | 0.00 | 0.00 | 37 | 1018.2 |
| 20260504014337 | 56 | 219 | 0.9 | 0.9 | 0.00 | 0.00 | 0.00 | 37 | 1018.2 |
| 20260504013835 | 55 | 221 | 0.9 | 1.7 | 0.00 | 0.00 | 0.00 | 36 | 1018.3 |
| 20260504013333 | 54 | 359 | 2.6 | 2.6 | 0.00 | 0.00 | 0.00 | 37 | 1018.5 |
| 20260504012829 | 53 | 322 | 0.9 | 0.9 | 0.00 | 0.00 | 0.00 | 39 | 1018.2 |
| 20260504012327 | 52 | 283 | 0.0 | 0.0 | 0.00 | 0.00 | 0.00 | 38 | 1018.4 |
| 20260504011825 | 52 | 272 | 0.0 | 0.0 | 0.00 | 0.00 | 0.00 | 39 | 1018.4 |
| 20260504011321 | 53 | 293 | 0.9 | 1.7 | 0.00 | 0.00 | 0.00 | 38 | 1018.4 |
| 20260504010817 | 53 | 258 | 1.7 | 2.6 | 0.00 | 0.00 | 0.00 | 39 | 1018.5 |
| 20260504010312 | 54 | 295 | 0.9 | 0.9 | 0.00 | 0.00 | 0.00 | 38 | 1018.4 |
| 20260504005809 | 54 | 282 | 1.7 | 1.7 | 0.00 | 0.00 | 0.00 | 38 | 1018.6 |
| 20260504005306 | 55 | 312 | 0.9 | 0.9 | 0.00 | 0.00 | 0.00 | 37 | 1018.2 |
| 20260504004804 | 56 | 284 | 1.7 | 2.6 | 0.00 | 0.00 | 0.00 | 36 | 1018.2 |
| 20260504004301 | 57 | 267 | 1.7 | 2.6 | 0.00 | 0.00 | 0.00 | 35 | 1018.4 |
| 20260504003757 | 57 | 244 | 1.7 | 2.6 | 0.00 | 0.00 | 0.00 | 35 | 1018.2 |
| 20260504003255 | 55 | 0 | 4.3 | 6.1 | 0.00 | 0.00 | 0.00 | 35 | 1018.3 |
| 20260504002751 | 54 | 222 | 1.7 | 2.6 | 0.00 | 0.00 | 0.00 | 37 | 1018.4 |
| 20260504002248 | 54 | 297 | 0.9 | 0.9 | 0.00 | 0.00 | 0.00 | 39 | 1018.3 |
| 20260504001746 | 55 | 214 | 0.9 | 1.7 | 0.00 | 0.00 | 0.00 | 37 | 1018.1 |
| 20260504001243 | 56 | 48 | 3.5 | 5.2 | 0.00 | 0.00 | 0.00 | 37 | 1018.1 |
| 20260504000739 | 57 | 140 | 2.6 | 2.6 | 0.00 | 0.00 | 0.00 | 36 | 1018.5 |
| 20260504000236 | 57 | 32 | 2.6 | 2.6 | 0.00 | 0.00 | 0.00 | 35 | 1018.3 |
| 20260503235735 | 56 | 336 | 2.6 | 2.6 | 0.00 | 0.00 | 0.00 | 35 | 1018.1 |
| 20260503235231 | 55 | 324 | 3.5 | 3.5 | 0.00 | 0.00 | 0.00 | 37 | 1018.6 |
| 20260503234729 | 57 | 66 | 0.9 | 1.7 | 0.00 | 0.00 | 0.00 | 36 | 1018.4 |
| 20260503234227 | 57 | 318 | 4.3 | 6.1 | 0.00 | 0.00 | 0.00 | 37 | 1018.3 |
| 20260503233724 | 58 | 267 | 3.5 | 6.1 | 0.00 | 0.00 | 0.00 | 34 | 1018.3 |
| 20260503233219 | 57 | 265 | 1.7 | 1.7 | 0.00 | 0.00 | 0.00 | 37 | 1018.1 |
| 20260503232716 | 56 | 217 | 1.7 | 2.6 | 0.00 | 0.00 | 0.00 | 37 | 1018.1 |
| 20260503232213 | 58 | 287 | 1.7 | 2.6 | 0.00 | 0.00 | 0.00 | 36 | 1018.2 |
| 20260503231712 | 57 | 280 | 3.5 | 5.2 | 0.00 | 0.00 | 0.00 | 37 | 1018.2 |
| 20260503231208 | 56 | 239 | 3.5 | 8.7 | 0.00 | 0.00 | 0.00 | 38 | 1018.0 |
| 20260503230704 | 57 | 247 | 5.2 | 6.1 | 0.00 | 0.00 | 0.00 | 38 | 1018.2 |
| 20260503230202 | 57 | 295 | 2.6 | 2.6 | 0.00 | 0.00 | 0.00 | 38 | 1018.1 |
| 20260503225659 | 57 | 21 | 6.1 | 8.7 | 0.00 | 0.00 | 0.00 | 37 | 1018.2 |
| 20260503225159 | 55 | 321 | 1.7 | 1.7 | 0.00 | 0.00 | 0.00 | 38 | 1018.2 |
| 20260503224657 | 56 | 326 | 1.7 | 2.6 | 0.00 | 0.00 | 0.00 | 38 | 1018.2 |
| 20260503224154 | 55 | 291 | 2.6 | 6.1 | 0.00 | 0.00 | 0.00 | 39 | 1018.2 |
| 20260503223652 | 56 | 260 | 7.8 | 8.7 | 0.00 | 0.00 | 0.00 | 39 | 1018.2 |
| 20260503223149 | 54 | 230 | 2.6 | 2.6 | 0.00 | 0.00 | 0.00 | 41 | 1018.1 |
| 20260503222646 | 53 | 102 | 0.9 | 1.7 | 0.00 | 0.00 | 0.00 | 42 | 1018.3 |
| 20260503222143 | 53 | 281 | 3.5 | 8.7 | 0.00 | 0.00 | 0.00 | 42 | 1018.5 |
| 20260503221642 | 54 | 238 | 3.5 | 5.2 | 0.00 | 0.00 | 0.00 | 41 | 1018.3 |
| 20260503221139 | 54 | 283 | 5.2 | 7.8 | 0.00 | 0.00 | 0.00 | 40 | 1018.2 |
| 20260503220635 | 56 | 262 | 7.8 | 13.9 | 0.00 | 0.00 | 0.00 | 40 | 1018.2 |
| 20260503220132 | 55 | 244 | 8.7 | 12.2 | 0.00 | 0.00 | 0.00 | 39 | 1018.0 |
| 20260503215629 | 53 | 359 | 6.1 | 7.8 | 0.00 | 0.00 | 0.00 | 41 | 1018.1 |
| 20260503215126 | 53 | 250 | 5.2 | 7.0 | 0.00 | 0.00 | 0.00 | 41 | 1018.0 |
| 20260503214625 | 54 | 264 | 5.2 | 6.1 | 0.00 | 0.00 | 0.00 | 41 | 1018.0 |
| 20260503214120 | 55 | 239 | 1.7 | 5.2 | 0.00 | 0.00 | 0.00 | 42 | 1017.7 |
| 20260503213620 | 55 | 281 | 5.2 | 7.0 | 0.00 | 0.00 | 0.00 | 41 | 1017.7 |
| 20260503213116 | 55 | 213 | 4.3 | 7.0 | 0.00 | 0.00 | 0.00 | 42 | 1017.7 |
| 20260503212613 | 53 | 248 | 7.0 | 12.2 | 0.00 | 0.00 | 0.00 | 43 | 1017.8 |
| 20260503212110 | 53 | 336 | 2.6 | 5.2 | 0.00 | 0.00 | 0.00 | 42 | 1017.7 |
| 20260503211608 | 53 | 280 | 4.3 | 7.0 | 0.00 | 0.00 | 0.00 | 44 | 1017.7 |
| 20260503211103 | 54 | 272 | 4.3 | 5.2 | 0.00 | 0.00 | 0.00 | 44 | 1017.6 |
| 20260503210600 | 54 | 298 | 1.7 | 2.6 | 0.00 | 0.00 | 0.00 | 43 | 1017.6 |
| 20260503210056 | 53 | 249 | 3.5 | 3.5 | 0.00 | 0.00 | 0.00 | 44 | 1017.5 |
| 20260503205552 | 54 | 250 | 1.7 | 2.6 | 0.00 | 0.00 | 0.00 | 44 | 1017.5 |
| 20260503205049 | 54 | 321 | 7.0 | 9.6 | 0.00 | 0.00 | 0.00 | 43 | 1017.6 |
| 20260503204546 | 53 | 220 | 2.6 | 3.5 | 0.00 | 0.00 | 0.00 | 46 | 1017.6 |
| 20260503204043 | 54 | 281 | 6.1 | 7.8 | 0.00 | 0.00 | 0.00 | 45 | 1017.4 |
| 20260503203540 | 52 | 244 | 5.2 | 7.0 | 0.00 | 0.00 | 0.00 | 46 | 1017.4 |
| 20260503203037 | 54 | 274 | 6.1 | 7.0 | 0.00 | 0.00 | 0.00 | 45 | 1017.3 |
| 20260503202535 | 52 | 276 | 0.9 | 1.7 | 0.00 | 0.00 | 0.00 | 47 | 1017.6 |
| 20260503202033 | 53 | 299 | 5.2 | 7.0 | 0.00 | 0.00 | 0.00 | 47 | 1017.4 |
| 20260503201531 | 53 | 259 | 6.1 | 7.8 | 0.00 | 0.00 | 0.00 | 46 | 1017.4 |
| 20260503201028 | 55 | 268 | 10.4 | 12.2 | 0.00 | 0.00 | 0.00 | 45 | 1017.2 |
| 20260503200524 | 54 | 289 | 3.5 | 5.2 | 0.00 | 0.00 | 0.00 | 44 | 1017.2 |
| 20260503200021 | 55 | 265 | 2.6 | 5.2 | 0.00 | 0.00 | 0.00 | 44 | 1017.2 |
| 20260503195518 | 53 | 266 | 8.7 | 13.9 | 0.00 | 0.00 | 0.00 | 45 | 1017.0 |
| 20260503195015 | 54 | 236 | 7.0 | 7.8 | 0.00 | 0.00 | 0.00 | 45 | 1017.3 |
| 20260503194512 | 53 | 113 | 1.7 | 2.6 | 0.00 | 0.00 | 0.00 | 46 | 1017.2 |
| 20260503194011 | 53 | 259 | 5.2 | 7.0 | 0.00 | 0.00 | 0.00 | 48 | 1017.1 |
| 20260503193508 | 53 | 289 | 3.5 | 5.2 | 0.00 | 0.00 | 0.00 | 46 | 1017.2 |
| 20260503193004 | 54 | 285 | 2.6 | 3.5 | 0.00 | 0.00 | 0.00 | 45 | 1016.9 |
| 20260503192500 | 53 | 260 | 1.7 | 2.6 | 0.00 | 0.00 | 0.00 | 45 | 1017.0 |
| 20260503191955 | 53 | 281 | 13.0 | 14.8 | 0.00 | 0.00 | 0.00 | 47 | 1016.9 |
| 20260503191453 | 53 | 263 | 6.1 | 7.8 | 0.00 | 0.00 | 0.00 | 47 | 1016.9 |
| 20260503190949 | 53 | 253 | 7.8 | 12.2 | 0.00 | 0.00 | 0.00 | 45 | 1016.9 |
| 20260503190447 | 53 | 278 | 1.7 | 1.7 | 0.00 | 0.00 | 0.00 | 46 | 1016.9 |
| 20260503185944 | 54 | 96 | 7.8 | 13.0 | 0.00 | 0.00 | 0.00 | 46 | 1017.0 |
| 20260503185440 | 53 | 297 | 5.2 | 7.0 | 0.00 | 0.00 | 0.00 | 47 | 1017.0 |
| 20260503184939 | 54 | 352 | 1.7 | 5.2 | 0.00 | 0.00 | 0.00 | 46 | 1016.9 |
| 20260503184436 | 54 | 241 | 7.8 | 8.7 | 0.00 | 0.00 | 0.00 | 46 | 1016.7 |
| 20260503183933 | 53 | 13 | 1.7 | 2.6 | 0.00 | 0.00 | 0.00 | 46 | 1016.9 |
| 20260503183429 | 53 | 248 | 6.1 | 7.8 | 0.00 | 0.00 | 0.00 | 47 | 1016.9 |
| 20260503182926 | 53 | 251 | 1.7 | 2.6 | 0.00 | 0.00 | 0.00 | 48 | 1016.7 |
| 20260503182425 | 54 | 243 | 13.0 | 19.1 | 0.00 | 0.00 | 0.00 | 47 | 1016.6 |
| 20260503181922 | 53 | 316 | 0.0 | 0.9 | 0.00 | 0.00 | 0.00 | 46 | 1016.6 |
| 20260503181419 | 52 | 225 | 7.8 | 9.6 | 0.00 | 0.00 | 0.00 | 48 | 1016.7 |
| 20260503180915 | 53 | 262 | 3.5 | 3.5 | 0.00 | 0.00 | 0.00 | 47 | 1016.6 |
| 20260503180414 | 53 | 106 | 2.6 | 3.5 | 0.00 | 0.00 | 0.00 | 50 | 1016.7 |
| 20260503175910 | 51 | 244 | 3.5 | 5.2 | 0.00 | 0.00 | 0.00 | 51 | 1016.5 |
| 20260503175408 | 51 | 284 | 7.0 | 9.6 | 0.00 | 0.00 | 0.00 | 52 | 1016.5 |
| 20260503174903 | 51 | 238 | 3.5 | 6.1 | 0.00 | 0.00 | 0.00 | 51 | 1016.3 |
| 20260503174402 | 52 | 313 | 0.9 | 0.9 | 0.00 | 0.00 | 0.00 | 50 | 1016.4 |
| 20260503173856 | 51 | 160 | 2.6 | 2.6 | 0.00 | 0.00 | 0.00 | 52 | 1016.5 |
| 20260503173353 | 50 | 304 | 1.7 | 3.5 | 0.00 | 0.00 | 0.00 | 52 | 1016.5 |
| 20260503172850 | 50 | 251 | 6.1 | 7.0 | 0.00 | 0.00 | 0.00 | 53 | 1016.5 |
| 20260503172347 | 50 | 276 | 7.8 | 8.7 | 0.00 | 0.00 | 0.00 | 52 | 1016.4 |
| 20260503171843 | 50 | 243 | 1.7 | 3.5 | 0.00 | 0.00 | 0.00 | 52 | 1016.4 |
| 20260503171340 | 50 | 256 | 4.3 | 5.2 | 0.00 | 0.00 | 0.00 | 53 | 1016.2 |
| 20260503170838 | 52 | 249 | 8.7 | 9.6 | 0.00 | 0.00 | 0.00 | 52 | 1016.3 |
| 20260503170334 | 50 | 330 | 5.2 | 7.0 | 0.00 | 0.00 | 0.00 | 52 | 1016.1 |
| 20260503150726 | 47 | 250 | 1.7 | 2.6 | 0.00 | 0.00 | 0.00 | 55 | 1015.0 |
| 20260503150222 | 47 | 255 | 5.2 | 7.0 | 0.00 | 0.00 | 0.00 | 57 | 1014.7 |
| 20260503140147 | 46 | 258 | 0.0 | 0.9 | 0.00 | 0.00 | 0.00 | 58 | 1013.7 |
| 20260503131116 | 43 | 267 | 0.9 | 1.7 | 0.00 | 0.00 | 0.00 | 62 | 1013.1 |
| 20260503130614 | 43 | 243 | 1.7 | 2.6 | 0.00 | 0.00 | 0.00 | 62 | 1012.9 |
| 20260503130112 | 43 | 237 | 1.7 | 1.7 | 0.00 | 0.00 | 0.00 | 63 | 1012.9 |
| 20260503110504 | 46 | 351 | 2.6 | 2.6 | 0.00 | 0.00 | 0.00 | 54 | 1011.2 |
| 20260503090355 | 48 | 276 | 0.0 | 0.0 | 0.00 | 0.00 | 0.00 | 50 | 1010.1 |
| 20260503081323 | 50 | 249 | 0.0 | 0.9 | 0.00 | 0.00 | 0.00 | 48 | 1009.2 |
| 20260503080820 | 50 | 270 | 3.5 | 5.2 | 0.00 | 0.00 | 0.00 | 49 | 1009.2 |
| 20260503080317 | 51 | 293 | 0.9 | 0.9 | 0.00 | 0.00 | 0.00 | 49 | 1009.0 |
| 20260503072753 | 51 | 265 | 0.9 | 0.9 | 0.00 | 0.00 | 0.00 | 49 | 1008.8 |
| 20260503072250 | 52 | 318 | 1.7 | 1.7 | 0.00 | 0.00 | 0.00 | 48 | 1008.7 |
| 20260503071746 | 53 | 265 | 1.7 | 2.6 | 0.00 | 0.00 | 0.00 | 47 | 1008.7 |
| 20260503071243 | 53 | 258 | 5.2 | 6.1 | 0.00 | 0.00 | 0.00 | 45 | 1008.8 |
| 20260503070739 | 53 | 272 | 0.0 | 0.9 | 0.00 | 0.00 | 0.00 | 47 | 1008.6 |
| 20260503070237 | 53 | 257 | 5.2 | 6.1 | 0.00 | 0.00 | 0.00 | 45 | 1008.6 |
| 20260503060202 | 57 | 281 | 3.5 | 3.5 | 0.00 | 0.00 | 0.00 | 42 | 1008.3 |
| 20260503054649 | 57 | 261 | 3.5 | 5.2 | 0.00 | 0.00 | 0.00 | 43 | 1008.5 |
| 20260503054147 | 57 | 249 | 4.3 | 6.1 | 0.00 | 0.00 | 0.00 | 43 | 1008.4 |
| 20260503053645 | 56 | 264 | 0.9 | 0.9 | 0.00 | 0.00 | 0.00 | 44 | 1008.4 |
| 20260503053143 | 57 | 299 | 3.5 | 5.2 | 0.00 | 0.00 | 0.00 | 43 | 1008.4 |
| 20260503052639 | 57 | 291 | 1.7 | 2.6 | 0.00 | 0.00 | 0.00 | 46 | 1008.4 |